Meteo Giornale » Osservazioni meteo Italia » Ronchi Dei Legionari

ore: 15:50 - Osservazioni Meteo Ronchi Dei Legionari
Lat. 45° 49' N Lon. 13° 29' E Alt. 12 metri s.l.m.

sereno Europe/Rome

29 °C

Sereno

Temp. 24 Ore

16 °C

30 °C

Sud/Sud-Ovest

13 Km/h

Dew point 16 °C

Umidità 45 %

Visibilità  10 Km

Il sole sorge alle ore 06:50

Il sole tramonta alle ore 19:07

Data e Ora Cielo e Fenomeni T °C DP °C Um. % Pres. hPa Vis. km Vento km/h
Oggi h: 15:50 sereno Sereno 29 16 45 1014 10 S/SO 13
Oggi h: 15:20 sereno Sereno 29 15 42 1014 10 S/SO 13
Oggi h: 14:50 sereno Sereno 29 15 42 1014 10 S/SO 11.1
Oggi h: 14:20 sereno Sereno 30 16 42 1014 10 S 7.4
Oggi h: 13:50 sereno Sereno 30 16 42 1015 10 N 5.5
Oggi h: 13:20 sereno Sereno 29 15 42 1015 10 N 5.5
Oggi h: 12:50 sereno Sereno 29 15 42 1015 10 S 7.4
Oggi h: 12:20 sereno Sereno 28 15 45 1015 10 SO 7.4
Oggi h: 11:50 sereno Sereno 28 15 45 1015 10 N 5.5
Oggi h: 11:20 sereno Sereno 27 16 50 1015 10 N 3.7
Oggi h: 10:50 sereno Sereno 27 17 54 1015 10 N 3.7
Oggi h: 10:20 sereno Sereno 25 16 57 1015 10 N 3.7
Oggi h: 09:50 sereno Sereno 25 17 61 1015 10 N 3.7
Oggi h: 09:20 sereno Sereno 23 17 68 1015 10 N 3.7
Oggi h: 08:50 sereno Sereno 21 17 77 1015 10 N 3.7
Oggi h: 08:20 sereno Sereno 19 16 82 1016 10 N 3.7
Oggi h: 07:50 sereno Sereno 18 15 82 1016 10 N/NE 7.4
Oggi h: 07:20 sereno Sereno 16 15 93 1015 10 N 1.8
Oggi h: 06:50 sereno Sereno 16 15 93 1015 10 N 7.4
Oggi h: 06:20 sereno Sereno 16 14 87 1015 10 N 5.5
Oggi h: 05:50 sereno Sereno 16 15 93 1015 10 N 5.5
Oggi h: 05:20 sereno Sereno 16 15 93 1015 10 N 3.7
Oggi h: 04:20 sereno Sereno 17 15 88 1016 10 N 3.7
Oggi h: 03:50 sereno Sereno 17 15 88 1016 10 N 3.7
Oggi h: 03:20 sereno Sereno 17 15 88 1016 10 N/NE 7.4
Oggi h: 02:50 sereno Sereno 16 15 93 1016 10 N 5.5
Oggi h: 02:20 sereno Sereno 17 15 88 1016 10 N 3.7
Oggi h: 01:50 sereno Sereno 17 16 93 1017 10 N 5.5
Oggi h: 01:20 sereno Sereno 19 16 82 1017 10 N 3.7
Oggi h: 00:50 sereno Sereno 18 15 82 1017 10 N 3.7
Oggi h: 00:20 sereno Sereno 18 16 88 1017 10 N 5.5
Ieri h: 23:50 sereno Sereno 18 16 88 1017 10 N 3.7
Ieri h: 23:20 sereno Sereno 19 16 82 1017 10 N 3.7
Ieri h: 22:20 sereno Sereno 20 16 77 1017 10 N 3.7
Ieri h: 21:50 sereno Sereno 21 16 73 1017 10 N 5.5
Ieri h: 21:20 sereno Sereno 22 16 68 1017 10 N 1.8
Ieri h: 20:50 sereno Sereno 23 16 64 1017 10 N 1.8
Ieri h: 20:20 sereno Sereno 23 16 64 1017 10 N 3.7
Ieri h: 19:50 sereno Sereno 23 16 64 1017 10 N 1.8
Ieri h: 19:20 sereno Sereno 27 15 47 1016 10 E 7.4
Ieri h: 18:50 sereno Sereno 28 16 48 1016 10 E 9.3
Ieri h: 18:20 sereno Sereno 28 17 51 1016 10 E/SE 11.1
Ieri h: 17:50 sereno Sereno 30 16 42 1016 10 N 1.8
Ieri h: 17:20 sereno Sereno 30 16 42 1016 10 N 3.7
Ieri h: 16:50 poco_nuvoloso Poco Nuvoloso 30 14 37 1017 10 N 5.5